EJU386B LFLL-LFKB
Flight info
| Callsign | EJU386B |
|---|---|
| Flight time | N/A |
| Altitude | 35000 |
| Route | ROMAM T43 BEPER DCT RETNO DCT KOLON DCT NARTI UP991 NIRDO |
| Aircraft | A320/M-SDE3FGHIRWY/LB1 |
Departure
| Time | 2026-04-27 18:44 |
|---|---|
| Airport | Lyon Saint-Exupéry Airport (LFLL) |
Arrival
| Time | N/A |
|---|---|
| Airport | Bastia-Poretta International airport (LFKB) |
| Time | Latitude | Longitude | Altitude | Speed | Heading |
|---|---|---|---|---|---|
| 2026-04-27 18:31 | 45.72440 | 5.08308 | 797 ft | 0 kts | 181° |
| 2026-04-27 18:36 | 45.72452 | 5.08309 | 796 ft | 2 kts | 181° |
| 2026-04-27 18:37 | 45.72462 | 5.08309 | 796 ft | 1 kts | 182° |
| 2026-04-27 18:37 | 45.72476 | 5.08304 | 796 ft | 2 kts | 141° |
| 2026-04-27 18:37 | 45.72485 | 5.08288 | 796 ft | 2 kts | 105° |
| 2026-04-27 18:37 | 45.72486 | 5.08272 | 796 ft | 0 kts | 78° |
| 2026-04-27 18:38 | 45.72483 | 5.08262 | 796 ft | 1 kts | 74° |
| 2026-04-27 18:38 | 45.72483 | 5.08261 | 796 ft | 0 kts | 74° |
| 2026-04-27 18:39 | 45.72483 | 5.08262 | 796 ft | 1 kts | 74° |
| 2026-04-27 18:40 | 45.72489 | 5.08293 | 796 ft | 6 kts | 74° |
| 2026-04-27 18:40 | 45.72487 | 5.08379 | 797 ft | 9 kts | 121° |
| 2026-04-27 18:40 | 45.72423 | 5.08403 | 798 ft | 10 kts | 179° |
| 2026-04-27 18:40 | 45.72337 | 5.08411 | 799 ft | 14 kts | 175° |
| 2026-04-27 18:41 | 45.72224 | 5.08426 | 800 ft | 17 kts | 175° |
| 2026-04-27 18:41 | 45.72107 | 5.08439 | 802 ft | 16 kts | 175° |
| 2026-04-27 18:41 | 45.71993 | 5.08454 | 804 ft | 16 kts | 174° |
| 2026-04-27 18:41 | 45.71882 | 5.08469 | 805 ft | 16 kts | 175° |
| 2026-04-27 18:42 | 45.71773 | 5.08483 | 806 ft | 15 kts | 175° |
| 2026-04-27 18:42 | 45.71703 | 5.08487 | 807 ft | 15 kts | 176° |
| 2026-04-27 18:42 | 45.71599 | 5.08554 | 809 ft | 12 kts | 99° |
| 2026-04-27 18:42 | 45.71604 | 5.08672 | 811 ft | 11 kts | 84° |
| 2026-04-27 18:43 | 45.71612 | 5.08780 | 813 ft | 10 kts | 85° |
| 2026-04-27 18:43 | 45.71617 | 5.08877 | 815 ft | 9 kts | 85° |
| 2026-04-27 18:43 | 45.71635 | 5.08958 | 816 ft | 8 kts | 19° |
| 2026-04-27 18:43 | 45.71706 | 5.08953 | 816 ft | 12 kts | 355° |
| 2026-04-27 18:44 | 45.72035 | 5.08918 | 811 ft | 83 kts | 355° |
| 2026-04-27 18:44 | 45.72838 | 5.08822 | 797 ft | 144 kts | 355° |
| 2026-04-27 18:44 | 45.73970 | 5.08687 | 992 ft | 174 kts | 355° |
| 2026-04-27 18:44 | 45.75190 | 5.08524 | 1591 ft | 180 kts | 356° |
| 2026-04-27 18:45 | 45.76369 | 5.08386 | 2492 ft | 169 kts | 356° |
| 2026-04-27 18:45 | 45.77538 | 5.08251 | 3092 ft | 176 kts | 356° |
| 2026-04-27 18:45 | 45.78818 | 5.08101 | 3540 ft | 193 kts | 356° |
| 2026-04-27 18:45 | 45.80200 | 5.07934 | 3989 ft | 210 kts | 356° |
| 2026-04-27 18:46 | 45.81719 | 5.07782 | 4452 ft | 227 kts | 2° |
| 2026-04-27 18:46 | 45.83260 | 5.08468 | 4856 ft | 245 kts | 37° |
| 2026-04-27 18:46 | 45.84321 | 5.10341 | 5661 ft | 248 kts | 68° |
| 2026-04-27 18:46 | 45.84563 | 5.12743 | 6467 ft | 251 kts | 99° |
| 2026-04-27 18:47 | 45.83878 | 5.15001 | 7227 ft | 255 kts | 131° |
| 2026-04-27 18:47 | 45.82416 | 5.16424 | 7961 ft | 259 kts | 163° |
| 2026-04-27 18:47 | 45.80682 | 5.17029 | 8736 ft | 262 kts | 167° |
| 2026-04-27 18:47 | 45.78894 | 5.17641 | 9515 ft | 266 kts | 167° |
| 2026-04-27 18:48 | 45.77117 | 5.18276 | 10288 ft | 268 kts | 167° |
| 2026-04-27 18:48 | 45.75312 | 5.18933 | 11055 ft | 271 kts | 167° |
| 2026-04-27 18:48 | 45.73482 | 5.19603 | 11806 ft | 273 kts | 167° |
| 2026-04-27 18:48 | 45.71607 | 5.20082 | 12548 ft | 275 kts | 175° |